KCWA

Central Wisconsin Airport

Mosinee, Wisconsin, USA
METAR KCWA 180655Z AUTO 27006KT 10SM CLR M08/M09 A3005 RMK AO2
Observed Flight Rules
Feb-18 @ 06:55 UTC (22 minutes ago) Visual Flight Rules
Wind Visibility Clouds
270° at 6 knots 10 miles
  • Clear skies
Temperatures Readings
Current -8°C / 18°F
Dewpoint -9°C / 16°F
Humidity 93%
Altimeter 30.05" Hg
Pressure 1018 hPa
Elevation 389
METAR KCWA 180655Z AUTO 27006KT 10SM CLR M08/M09 A3005 RMK AO2
Observed Flight Rules
Feb-18 @ 06:55 UTC
(22 minutes ago)
VFR
Wind Visibility
270° at 6 knots 10 miles
Clouds
  • Clear skies
Temperature Dewpoint
-8°C / 18°F -9°C / 16°F
Humidity Altimeter Pressure
93% 30.05" Hg 1018 hPa